sensor_id;sensor_type;location;lat;lon;timestamp;temperature;humidity
64997;SHT31;51545;51.568;6.998;2023-02-15T00:01:39;2.57;91.58
64997;SHT31;51545;51.568;6.998;2023-02-15T00:04:06;2.57;91.66
64997;SHT31;51545;51.568;6.998;2023-02-15T00:06:32;2.52;91.50
64997;SHT31;51545;51.568;6.998;2023-02-15T00:08:58;2.45;91.41
64997;SHT31;51545;51.568;6.998;2023-02-15T00:11:23;2.45;91.43
64997;SHT31;51545;51.568;6.998;2023-02-15T00:16:38;2.36;91.30
64997;SHT31;51545;51.568;6.998;2023-02-15T00:19:05;2.28;91.43
64997;SHT31;51545;51.568;6.998;2023-02-15T00:21:31;2.28;91.96
64997;SHT31;51545;51.568;6.998;2023-02-15T00:23:58;2.29;92.06
64997;SHT31;51545;51.568;6.998;2023-02-15T00:26:24;2.19;92.17
64997;SHT31;51545;51.568;6.998;2023-02-15T00:28:50;2.19;92.34
64997;SHT31;51545;51.568;6.998;2023-02-15T00:31:16;2.22;92.42
64997;SHT31;51545;51.568;6.998;2023-02-15T00:33:42;2.22;92.41
64997;SHT31;51545;51.568;6.998;2023-02-15T00:36:08;2.25;92.40
64997;SHT31;51545;51.568;6.998;2023-02-15T00:38:37;2.18;92.24
64997;SHT31;51545;51.568;6.998;2023-02-15T00:41:03;2.15;91.97
64997;SHT31;51545;51.568;6.998;2023-02-15T00:43:30;2.19;92.05
64997;SHT31;51545;51.568;6.998;2023-02-15T00:45:57;2.19;92.00
64997;SHT31;51545;51.568;6.998;2023-02-15T00:48:23;2.16;91.96
64997;SHT31;51545;51.568;6.998;2023-02-15T00:50:49;2.12;92.14
64997;SHT31;51545;51.568;6.998;2023-02-15T00:53:16;2.13;92.18
64997;SHT31;51545;51.568;6.998;2023-02-15T00:55:42;2.15;92.09
64997;SHT31;51545;51.568;6.998;2023-02-15T00:58:08;2.06;92.01
64997;SHT31;51545;51.568;6.998;2023-02-15T01:00:34;2.03;92.01
64997;SHT31;51545;51.568;6.998;2023-02-15T01:03:00;1.99;91.95
64997;SHT31;51545;51.568;6.998;2023-02-15T01:05:26;1.94;91.91
64997;SHT31;51545;51.568;6.998;2023-02-15T01:07:52;1.91;92.10
64997;SHT31;51545;51.568;6.998;2023-02-15T01:10:17;1.91;92.16
64997;SHT31;51545;51.568;6.998;2023-02-15T01:12:43;1.87;92.26
64997;SHT31;51545;51.568;6.998;2023-02-15T01:15:08;1.81;92.31
64997;SHT31;51545;51.568;6.998;2023-02-15T01:17:34;1.74;92.45
64997;SHT31;51545;51.568;6.998;2023-02-15T01:20:00;1.74;92.58
64997;SHT31;51545;51.568;6.998;2023-02-15T01:22:25;1.78;92.80
64997;SHT31;51545;51.568;6.998;2023-02-15T01:24:51;1.71;92.59
64997;SHT31;51545;51.568;6.998;2023-02-15T01:27:16;1.63;92.71
64997;SHT31;51545;51.568;6.998;2023-02-15T01:29:42;1.60;92.87
64997;SHT31;51545;51.568;6.998;2023-02-15T01:32:08;1.60;92.96
64997;SHT31;51545;51.568;6.998;2023-02-15T01:34:33;1.63;92.97
64997;SHT31;51545;51.568;6.998;2023-02-15T01:36:59;1.63;92.88
64997;SHT31;51545;51.568;6.998;2023-02-15T01:39:24;1.63;92.92
64997;SHT31;51545;51.568;6.998;2023-02-15T01:41:50;1.60;92.78
64997;SHT31;51545;51.568;6.998;2023-02-15T01:50:01;1.52;93.08
64997;SHT31;51545;51.568;6.998;2023-02-15T01:52:27;1.52;93.10
64997;SHT31;51545;51.568;6.998;2023-02-15T01:54:53;1.39;93.10
64997;SHT31;51545;51.568;6.998;2023-02-15T01:57:19;1.38;93.17
64997;SHT31;51545;51.568;6.998;2023-02-15T01:59:49;1.34;93.26
64997;SHT31;51545;51.568;6.998;2023-02-15T02:02:19;1.38;93.22
64997;SHT31;51545;51.568;6.998;2023-02-15T02:04:47;1.35;93.10
64997;SHT31;51545;51.568;6.998;2023-02-15T02:07:15;1.34;92.94
64997;SHT31;51545;51.568;6.998;2023-02-15T02:09:44;1.21;92.72
64997;SHT31;51545;51.568;6.998;2023-02-15T02:12:10;1.18;93.05
64997;SHT31;51545;51.568;6.998;2023-02-15T02:14:37;1.18;93.33
64997;SHT31;51545;51.568;6.998;2023-02-15T02:22:22;1.19;93.46
64997;SHT31;51545;51.568;6.998;2023-02-15T02:27:50;1.18;93.35
64997;SHT31;51545;51.568;6.998;2023-02-15T02:44:46;1.07;93.44
64997;SHT31;51545;51.568;6.998;2023-02-15T02:49:59;1.02;93.26
64997;SHT31;51545;51.568;6.998;2023-02-15T02:58:04;0.84;93.29
64997;SHT31;51545;51.568;6.998;2023-02-15T03:00:38;0.73;93.39
64997;SHT31;51545;51.568;6.998;2023-02-15T03:03:10;0.74;93.76
64997;SHT31;51545;51.568;6.998;2023-02-15T03:05:41;0.73;93.78
64997;SHT31;51545;51.568;6.998;2023-02-15T03:08:11;0.64;93.60
64997;SHT31;51545;51.568;6.998;2023-02-15T03:10:51;0.70;94.01
64997;SHT31;51545;51.568;6.998;2023-02-15T03:13:20;0.69;94.14
64997;SHT31;51545;51.568;6.998;2023-02-15T03:15:47;0.73;94.19
64997;SHT31;51545;51.568;6.998;2023-02-15T03:18:35;0.70;94.14
64997;SHT31;51545;51.568;6.998;2023-02-15T03:21:04;0.70;94.12
64997;SHT31;51545;51.568;6.998;2023-02-15T03:23:33;0.72;94.23
64997;SHT31;51545;51.568;6.998;2023-02-15T03:26:02;0.77;94.35
64997;SHT31;51545;51.568;6.998;2023-02-15T03:28:52;0.74;94.19
64997;SHT31;51545;51.568;6.998;2023-02-15T03:31:18;0.76;94.16
64997;SHT31;51545;51.568;6.998;2023-02-15T03:33:50;0.74;94.05
64997;SHT31;51545;51.568;6.998;2023-02-15T03:36:30;0.72;94.00
64997;SHT31;51545;51.568;6.998;2023-02-15T03:40:07;0.60;93.96
64997;SHT31;51545;51.568;6.998;2023-02-15T03:42:11;0.59;94.20
64997;SHT31;51545;51.568;6.998;2023-02-15T03:44:53;0.59;94.32
64997;SHT31;51545;51.568;6.998;2023-02-15T03:47:25;0.57;94.37
64997;SHT31;51545;51.568;6.998;2023-02-15T03:50:00;0.55;94.42
64997;SHT31;51545;51.568;6.998;2023-02-15T03:52:50;0.50;94.49
64997;SHT31;51545;51.568;6.998;2023-02-15T03:55:16;0.52;94.44
64997;SHT31;51545;51.568;6.998;2023-02-15T03:57:41;0.53;94.47
64997;SHT31;51545;51.568;6.998;2023-02-15T04:00:26;0.48;94.49
64997;SHT31;51545;51.568;6.998;2023-02-15T04:03:12;0.50;94.55
64997;SHT31;51545;51.568;6.998;2023-02-15T04:05:41;0.48;94.74
64997;SHT31;51545;51.568;6.998;2023-02-15T04:08:08;0.50;94.76
64997;SHT31;51545;51.568;6.998;2023-02-15T04:10:34;0.49;94.68
64997;SHT31;51545;51.568;6.998;2023-02-15T04:13:19;0.44;94.77
64997;SHT31;51545;51.568;6.998;2023-02-15T04:15:45;0.48;94.79
64997;SHT31;51545;51.568;6.998;2023-02-15T04:18:32;0.48;94.78
64997;SHT31;51545;51.568;6.998;2023-02-15T04:21:21;0.45;94.87
64997;SHT31;51545;51.568;6.998;2023-02-15T04:24:07;0.42;94.76
64997;SHT31;51545;51.568;6.998;2023-02-15T04:26:52;0.41;94.79
64997;SHT31;51545;51.568;6.998;2023-02-15T04:29:18;0.35;94.81
64997;SHT31;51545;51.568;6.998;2023-02-15T04:31:47;0.38;94.88
64997;SHT31;51545;51.568;6.998;2023-02-15T04:34:13;0.39;94.87
64997;SHT31;51545;51.568;6.998;2023-02-15T04:36:39;0.32;94.72
64997;SHT31;51545;51.568;6.998;2023-02-15T04:39:05;0.32;94.86
64997;SHT31;51545;51.568;6.998;2023-02-15T04:41:32;0.31;95.00
64997;SHT31;51545;51.568;6.998;2023-02-15T04:43:57;0.34;95.05
64997;SHT31;51545;51.568;6.998;2023-02-15T04:46:24;0.35;95.08
64997;SHT31;51545;51.568;6.998;2023-02-15T04:48:50;0.32;94.94
64997;SHT31;51545;51.568;6.998;2023-02-15T04:51:15;0.29;94.92
64997;SHT31;51545;51.568;6.998;2023-02-15T04:53:41;0.26;95.02
64997;SHT31;51545;51.568;6.998;2023-02-15T04:56:06;0.24;95.05
64997;SHT31;51545;51.568;6.998;2023-02-15T04:58:31;0.24;95.06
64997;SHT31;51545;51.568;6.998;2023-02-15T05:00:57;0.28;95.06
64997;SHT31;51545;51.568;6.998;2023-02-15T05:03:23;0.28;95.07
64997;SHT31;51545;51.568;6.998;2023-02-15T05:05:50;0.25;94.88
64997;SHT31;51545;51.568;6.998;2023-02-15T05:08:16;0.26;94.90
64997;SHT31;51545;51.568;6.998;2023-02-15T05:10:41;0.28;94.96
64997;SHT31;51545;51.568;6.998;2023-02-15T05:13:07;0.28;94.97
64997;SHT31;51545;51.568;6.998;2023-02-15T05:15:33;0.26;94.94
64997;SHT31;51545;51.568;6.998;2023-02-15T05:17:58;0.24;94.89
64997;SHT31;51545;51.568;6.998;2023-02-15T05:20:24;0.24;95.00
64997;SHT31;51545;51.568;6.998;2023-02-15T05:22:52;0.28;95.01
64997;SHT31;51545;51.568;6.998;2023-02-15T05:25:18;0.26;95.02
64997;SHT31;51545;51.568;6.998;2023-02-15T05:28:02;0.22;94.88
64997;SHT31;51545;51.568;6.998;2023-02-15T05:30:47;0.21;94.85
64997;SHT31;51545;51.568;6.998;2023-02-15T05:33:14;0.19;95.01
64997;SHT31;51545;51.568;6.998;2023-02-15T05:35:39;0.14;94.86
64997;SHT31;51545;51.568;6.998;2023-02-15T05:38:05;0.08;94.86
64997;SHT31;51545;51.568;6.998;2023-02-15T05:40:30;0.05;95.11
64997;SHT31;51545;51.568;6.998;2023-02-15T05:42:56;0.07;95.27
64997;SHT31;51545;51.568;6.998;2023-02-15T05:45:22;0.08;95.37
64997;SHT31;51545;51.568;6.998;2023-02-15T05:47:48;0.11;95.34
64997;SHT31;51545;51.568;6.998;2023-02-15T05:50:13;0.10;95.38
64997;SHT31;51545;51.568;6.998;2023-02-15T05:52:39;0.13;95.28
64997;SHT31;51545;51.568;6.998;2023-02-15T05:55:04;0.13;95.27
64997;SHT31;51545;51.568;6.998;2023-02-15T05:57:30;0.10;95.26
64997;SHT31;51545;51.568;6.998;2023-02-15T05:59:56;0.08;95.36
64997;SHT31;51545;51.568;6.998;2023-02-15T06:02:22;0.07;95.27
64997;SHT31;51545;51.568;6.998;2023-02-15T06:04:48;0.00;95.35
64997;SHT31;51545;51.568;6.998;2023-02-15T06:07:14;-0.02;95.31
64997;SHT31;51545;51.568;6.998;2023-02-15T06:09:40;-0.03;95.28
64997;SHT31;51545;51.568;6.998;2023-02-15T06:12:05;-0.03;95.26
64997;SHT31;51545;51.568;6.998;2023-02-15T06:14:33;-0.03;95.19
64997;SHT31;51545;51.568;6.998;2023-02-15T06:16:58;-0.07;95.21
64997;SHT31;51545;51.568;6.998;2023-02-15T06:19:24;-0.07;95.46
64997;SHT31;51545;51.568;6.998;2023-02-15T06:21:49;-0.03;95.55
64997;SHT31;51545;51.568;6.998;2023-02-15T06:24:15;-0.03;95.59
64997;SHT31;51545;51.568;6.998;2023-02-15T06:26:40;-0.05;95.54
64997;SHT31;51545;51.568;6.998;2023-02-15T06:29:06;-0.05;95.54
64997;SHT31;51545;51.568;6.998;2023-02-15T06:31:32;0.00;95.47
64997;SHT31;51545;51.568;6.998;2023-02-15T06:33:57;-0.05;95.35
64997;SHT31;51545;51.568;6.998;2023-02-15T06:36:29;-0.10;95.40
64997;SHT31;51545;51.568;6.998;2023-02-15T06:38:55;-0.10;95.53
64997;SHT31;51545;51.568;6.998;2023-02-15T06:41:21;-0.10;95.51
64997;SHT31;51545;51.568;6.998;2023-02-15T06:43:47;-0.13;95.54
64997;SHT31;51545;51.568;6.998;2023-02-15T06:46:13;-0.10;95.58
64997;SHT31;51545;51.568;6.998;2023-02-15T06:48:38;-0.09;95.73
64997;SHT31;51545;51.568;6.998;2023-02-15T06:51:03;-0.09;95.72
64997;SHT31;51545;51.568;6.998;2023-02-15T06:53:29;-0.16;95.71
64997;SHT31;51545;51.568;6.998;2023-02-15T06:56:01;-0.11;95.85
64997;SHT31;51545;51.568;6.998;2023-02-15T06:58:31;-0.09;95.90
64997;SHT31;51545;51.568;6.998;2023-02-15T07:00:57;-0.06;95.89
64997;SHT31;51545;51.568;6.998;2023-02-15T07:03:22;-0.06;95.78
64997;SHT31;51545;51.568;6.998;2023-02-15T07:05:48;-0.02;95.85
64997;SHT31;51545;51.568;6.998;2023-02-15T07:08:14;-0.02;95.89
64997;SHT31;51545;51.568;6.998;2023-02-15T07:10:42;0.08;96.00
64997;SHT31;51545;51.568;6.998;2023-02-15T07:13:08;0.08;95.91
64997;SHT31;51545;51.568;6.998;2023-02-15T07:15:34;0.14;95.88
64997;SHT31;51545;51.568;6.998;2023-02-15T07:17:59;0.15;95.88
64997;SHT31;51545;51.568;6.998;2023-02-15T07:20:25;0.21;95.92
64997;SHT31;51545;51.568;6.998;2023-02-15T07:22:50;0.24;95.84
64997;SHT31;51545;51.568;6.998;2023-02-15T07:25:16;0.25;95.79
64997;SHT31;51545;51.568;6.998;2023-02-15T07:27:42;0.31;95.80
64997;SHT31;51545;51.568;6.998;2023-02-15T07:30:10;0.35;95.76
64997;SHT31;51545;51.568;6.998;2023-02-15T07:32:36;0.36;95.65
64997;SHT31;51545;51.568;6.998;2023-02-15T07:35:22;0.41;95.69
64997;SHT31;51545;51.568;6.998;2023-02-15T07:37:47;0.44;95.75
64997;SHT31;51545;51.568;6.998;2023-02-15T07:40:13;0.53;95.68
64997;SHT31;51545;51.568;6.998;2023-02-15T07:42:38;0.59;95.65
64997;SHT31;51545;51.568;6.998;2023-02-15T07:45:04;0.59;95.47
64997;SHT31;51545;51.568;6.998;2023-02-15T07:47:29;0.64;95.49
64997;SHT31;51545;51.568;6.998;2023-02-15T07:49:55;0.67;95.53
64997;SHT31;51545;51.568;6.998;2023-02-15T07:52:20;0.73;95.57
64997;SHT31;51545;51.568;6.998;2023-02-15T07:54:46;0.80;95.63
64997;SHT31;51545;51.568;6.998;2023-02-15T07:57:11;0.90;95.73
64997;SHT31;51545;51.568;6.998;2023-02-15T07:59:36;0.97;95.64
64997;SHT31;51545;51.568;6.998;2023-02-15T08:02:02;1.05;95.65
64997;SHT31;51545;51.568;6.998;2023-02-15T08:04:27;1.11;95.64
64997;SHT31;51545;51.568;6.998;2023-02-15T08:06:53;1.17;95.52
64997;SHT31;51545;51.568;6.998;2023-02-15T08:09:19;1.24;95.58
64997;SHT31;51545;51.568;6.998;2023-02-15T08:11:46;1.32;95.60
64997;SHT31;51545;51.568;6.998;2023-02-15T08:14:13;1.40;95.54
64997;SHT31;51545;51.568;6.998;2023-02-15T08:16:47;1.45;95.71
64997;SHT31;51545;51.568;6.998;2023-02-15T08:19:14;1.60;95.85
64997;SHT31;51545;51.568;6.998;2023-02-15T08:21:45;1.64;95.76
64997;SHT31;51545;51.568;6.998;2023-02-15T08:24:15;1.87;96.08
64997;SHT31;51545;51.568;6.998;2023-02-15T08:26:43;2.01;96.19
64997;SHT31;51545;51.568;6.998;2023-02-15T08:29:16;2.15;95.99
64997;SHT31;51545;51.568;6.998;2023-02-15T08:31:44;2.29;95.98
64997;SHT31;51545;51.568;6.998;2023-02-15T08:34:11;2.46;96.13
64997;SHT31;51545;51.568;6.998;2023-02-15T08:36:39;2.58;95.82
64997;SHT31;51545;51.568;6.998;2023-02-15T08:39:05;2.66;95.50
64997;SHT31;51545;51.568;6.998;2023-02-15T08:41:32;2.73;95.30
64997;SHT31;51545;51.568;6.998;2023-02-15T08:44:03;2.85;95.21
64997;SHT31;51545;51.568;6.998;2023-02-15T08:46:32;2.95;95.02
64997;SHT31;51545;51.568;6.998;2023-02-15T08:48:59;3.12;94.81
64997;SHT31;51545;51.568;6.998;2023-02-15T08:51:32;3.27;94.74
64997;SHT31;51545;51.568;6.998;2023-02-15T08:54:00;3.40;94.27
64997;SHT31;51545;51.568;6.998;2023-02-15T08:56:28;3.43;93.95
64997;SHT31;51545;51.568;6.998;2023-02-15T08:58:58;3.57;93.76
64997;SHT31;51545;51.568;6.998;2023-02-15T09:01:28;3.66;93.10
64997;SHT31;51545;51.568;6.998;2023-02-15T09:03:55;3.77;92.84
64997;SHT31;51545;51.568;6.998;2023-02-15T09:06:22;3.86;92.50
64997;SHT31;51545;51.568;6.998;2023-02-15T09:08:49;3.99;92.51
64997;SHT31;51545;51.568;6.998;2023-02-15T09:11:16;4.16;91.72
64997;SHT31;51545;51.568;6.998;2023-02-15T09:13:51;4.27;91.50
64997;SHT31;51545;51.568;6.998;2023-02-15T09:16:17;4.44;91.86
64997;SHT31;51545;51.568;6.998;2023-02-15T09:18:43;4.47;91.33
64997;SHT31;51545;51.568;6.998;2023-02-15T09:21:10;4.57;91.24
64997;SHT31;51545;51.568;6.998;2023-02-15T09:23:38;4.74;90.87
64997;SHT31;51545;51.568;6.998;2023-02-15T09:26:06;4.84;90.44
64997;SHT31;51545;51.568;6.998;2023-02-15T09:28:33;4.88;90.38
64997;SHT31;51545;51.568;6.998;2023-02-15T09:33:41;5.10;89.92
64997;SHT31;51545;51.568;6.998;2023-02-15T09:36:16;5.37;89.00
64997;SHT31;51545;51.568;6.998;2023-02-15T09:38:46;5.60;87.39
64997;SHT31;51545;51.568;6.998;2023-02-15T09:43:41;5.99;86.81
64997;SHT31;51545;51.568;6.998;2023-02-15T09:48:53;6.69;83.83
64997;SHT31;51545;51.568;6.998;2023-02-15T09:57:46;6.79;81.39
64997;SHT31;51545;51.568;6.998;2023-02-15T10:02:59;6.96;80.82
64997;SHT31;51545;51.568;6.998;2023-02-15T10:05:47;7.11;80.13
64997;SHT31;51545;51.568;6.998;2023-02-15T10:11:02;7.76;79.39
64997;SHT31;51545;51.568;6.998;2023-02-15T10:14:07;8.44;76.16
64997;SHT31;51545;51.568;6.998;2023-02-15T10:24:55;11.23;68.51
64997;SHT31;51545;51.568;6.998;2023-02-15T10:27:26;11.42;64.44
64997;SHT31;51545;51.568;6.998;2023-02-15T10:30:14;11.29;65.72
64997;SHT31;51545;51.568;6.998;2023-02-15T10:52:26;13.19;60.50
64997;SHT31;51545;51.568;6.998;2023-02-15T11:01:10;14.05;56.50
64997;SHT31;51545;51.568;6.998;2023-02-15T11:06:42;12.46;58.69
64997;SHT31;51545;51.568;6.998;2023-02-15T11:09:16;12.28;59.96
64997;SHT31;51545;51.568;6.998;2023-02-15T11:11:48;12.11;60.69
64997;SHT31;51545;51.568;6.998;2023-02-15T11:14:17;12.39;59.58
64997;SHT31;51545;51.568;6.998;2023-02-15T11:16:46;12.35;60.15
64997;SHT31;51545;51.568;6.998;2023-02-15T11:21:54;12.50;61.06
64997;SHT31;51545;51.568;6.998;2023-02-15T11:24:29;12.84;59.72
64997;SHT31;51545;51.568;6.998;2023-02-15T11:29:48;12.77;58.76
64997;SHT31;51545;51.568;6.998;2023-02-15T11:32:21;12.63;58.51
64997;SHT31;51545;51.568;6.998;2023-02-15T11:34:56;12.98;59.18
64997;SHT31;51545;51.568;6.998;2023-02-15T11:37:29;13.56;57.88
64997;SHT31;51545;51.568;6.998;2023-02-15T11:40:00;13.28;56.87
64997;SHT31;51545;51.568;6.998;2023-02-15T11:42:28;13.94;57.51
64997;SHT31;51545;51.568;6.998;2023-02-15T11:47:52;13.98;55.41
64997;SHT31;51545;51.568;6.998;2023-02-15T11:50:22;14.70;54.72
64997;SHT31;51545;51.568;6.998;2023-02-15T11:52:50;15.36;52.16
64997;SHT31;51545;51.568;6.998;2023-02-15T11:55:20;15.52;50.73
64997;SHT31;51545;51.568;6.998;2023-02-15T12:00:50;14.48;52.93
64997;SHT31;51545;51.568;6.998;2023-02-15T12:03:22;14.76;51.83
64997;SHT31;51545;51.568;6.998;2023-02-15T12:06:00;15.31;51.58
64997;SHT31;51545;51.568;6.998;2023-02-15T12:11:32;15.63;50.95
64997;SHT31;51545;51.568;6.998;2023-02-15T12:14:09;15.54;50.62
64997;SHT31;51545;51.568;6.998;2023-02-15T12:16:41;14.94;52.47
64997;SHT31;51545;51.568;6.998;2023-02-15T12:19:13;15.57;50.31
64997;SHT31;51545;51.568;6.998;2023-02-15T12:21:52;15.42;52.29
64997;SHT31;51545;51.568;6.998;2023-02-15T12:24:20;14.01;53.38
64997;SHT31;51545;51.568;6.998;2023-02-15T12:26:58;14.21;54.45
64997;SHT31;51545;51.568;6.998;2023-02-15T12:29:39;14.39;54.38
64997;SHT31;51545;51.568;6.998;2023-02-15T12:32:16;14.11;53.29
64997;SHT31;51545;51.568;6.998;2023-02-15T12:34:44;13.95;55.13
64997;SHT31;51545;51.568;6.998;2023-02-15T12:37:30;14.02;52.60
64997;SHT31;51545;51.568;6.998;2023-02-15T12:40:00;13.67;53.48
64997;SHT31;51545;51.568;6.998;2023-02-15T12:42:28;14.05;53.23
64997;SHT31;51545;51.568;6.998;2023-02-15T12:45:26;14.40;52.46
64997;SHT31;51545;51.568;6.998;2023-02-15T12:48:16;14.18;52.35
64997;SHT31;51545;51.568;6.998;2023-02-15T12:50:46;14.49;51.92
64997;SHT31;51545;51.568;6.998;2023-02-15T12:53:21;14.70;51.73
64997;SHT31;51545;51.568;6.998;2023-02-15T12:55:52;14.48;53.18
64997;SHT31;51545;51.568;6.998;2023-02-15T12:58:22;14.66;51.95
64997;SHT31;51545;51.568;6.998;2023-02-15T13:06:25;14.83;49.26
64997;SHT31;51545;51.568;6.998;2023-02-15T13:08:52;14.88;50.33
64997;SHT31;51545;51.568;6.998;2023-02-15T13:11:29;15.74;48.76
64997;SHT31;51545;51.568;6.998;2023-02-15T13:14:03;16.24;48.21
64997;SHT31;51545;51.568;6.998;2023-02-15T13:16:44;16.08;48.30
64997;SHT31;51545;51.568;6.998;2023-02-15T13:19:14;16.19;46.53
64997;SHT31;51545;51.568;6.998;2023-02-15T13:21:50;16.09;46.74
64997;SHT31;51545;51.568;6.998;2023-02-15T13:24:22;16.92;46.51
64997;SHT31;51545;51.568;6.998;2023-02-15T13:26:54;17.60;44.38
64997;SHT31;51545;51.568;6.998;2023-02-15T13:32:11;17.89;43.63
64997;SHT31;51545;51.568;6.998;2023-02-15T13:34:57;18.56;42.95
64997;SHT31;51545;51.568;6.998;2023-02-15T13:40:12;18.01;41.12
64997;SHT31;51545;51.568;6.998;2023-02-15T13:42:48;17.75;42.79
64997;SHT31;51545;51.568;6.998;2023-02-15T13:45:36;18.75;44.11
64997;SHT31;51545;51.568;6.998;2023-02-15T13:48:50;19.01;40.99
64997;SHT31;51545;51.568;6.998;2023-02-15T13:51:43;18.63;41.40
64997;SHT31;51545;51.568;6.998;2023-02-15T14:12:50;18.56;40.37
64997;SHT31;51545;51.568;6.998;2023-02-15T14:15:29;18.74;40.04
64997;SHT31;51545;51.568;6.998;2023-02-15T14:18:14;18.72;39.38
64997;SHT31;51545;51.568;6.998;2023-02-15T14:26:56;18.44;40.90
64997;SHT31;51545;51.568;6.998;2023-02-15T14:29:28;18.10;41.28
64997;SHT31;51545;51.568;6.998;2023-02-15T14:32:24;17.87;43.28
64997;SHT31;51545;51.568;6.998;2023-02-15T14:35:16;17.71;42.42
64997;SHT31;51545;51.568;6.998;2023-02-15T14:52:07;15.57;47.15
64997;SHT31;51545;51.568;6.998;2023-02-15T15:05:13;15.47;46.80
64997;SHT31;51545;51.568;6.998;2023-02-15T15:12:42;15.04;47.52
64997;SHT31;51545;51.568;6.998;2023-02-15T15:18:08;14.78;48.40
64997;SHT31;51545;51.568;6.998;2023-02-15T15:25:47;14.39;48.48
64997;SHT31;51545;51.568;6.998;2023-02-15T15:42:23;14.25;50.43
64997;SHT31;51545;51.568;6.998;2023-02-15T15:50:18;14.04;50.59
64997;SHT31;51545;51.568;6.998;2023-02-15T15:52:52;13.98;52.42
64997;SHT31;51545;51.568;6.998;2023-02-15T15:55:21;13.86;51.40
64997;SHT31;51545;51.568;6.998;2023-02-15T15:58:02;13.93;52.47
64997;SHT31;51545;51.568;6.998;2023-02-15T16:00:35;13.76;53.10
64997;SHT31;51545;51.568;6.998;2023-02-15T16:03:12;13.54;53.98
64997;SHT31;51545;51.568;6.998;2023-02-15T16:05:45;13.36;53.55
64997;SHT31;51545;51.568;6.998;2023-02-15T16:08:11;13.26;53.19
64997;SHT31;51545;51.568;6.998;2023-02-15T16:10:36;13.26;52.65
64997;SHT31;51545;51.568;6.998;2023-02-15T16:13:04;13.22;53.78
64997;SHT31;51545;51.568;6.998;2023-02-15T16:15:43;13.08;55.06
64997;SHT31;51545;51.568;6.998;2023-02-15T16:18:21;12.95;55.78
64997;SHT31;51545;51.568;6.998;2023-02-15T16:20:52;12.70;56.00
64997;SHT31;51545;51.568;6.998;2023-02-15T16:29:23;12.31;60.00
64997;SHT31;51545;51.568;6.998;2023-02-15T16:32:04;12.09;59.21
64997;SHT31;51545;51.568;6.998;2023-02-15T16:34:58;11.90;60.06
64997;SHT31;51545;51.568;6.998;2023-02-15T16:37:40;11.87;60.44
64997;SHT31;51545;51.568;6.998;2023-02-15T16:40:14;11.71;61.37
64997;SHT31;51545;51.568;6.998;2023-02-15T16:42:52;11.69;60.12
64997;SHT31;51545;51.568;6.998;2023-02-15T16:45:22;11.60;61.41
64997;SHT31;51545;51.568;6.998;2023-02-15T16:47:52;11.49;60.93
64997;SHT31;51545;51.568;6.998;2023-02-15T16:50:22;11.67;59.68
64997;SHT31;51545;51.568;6.998;2023-02-15T16:52:51;11.81;59.36
64997;SHT31;51545;51.568;6.998;2023-02-15T16:55:25;11.83;59.41
64997;SHT31;51545;51.568;6.998;2023-02-15T16:57:57;11.70;60.09
64997;SHT31;51545;51.568;6.998;2023-02-15T17:00:28;11.62;60.07
64997;SHT31;51545;51.568;6.998;2023-02-15T17:03:06;11.70;59.62
64997;SHT31;51545;51.568;6.998;2023-02-15T17:05:46;11.71;59.72
64997;SHT31;51545;51.568;6.998;2023-02-15T17:11:13;11.59;60.24
64997;SHT31;51545;51.568;6.998;2023-02-15T17:16:35;11.38;61.96
64997;SHT31;51545;51.568;6.998;2023-02-15T17:19:16;10.88;62.89
64997;SHT31;51545;51.568;6.998;2023-02-15T17:21:49;10.53;63.89
64997;SHT31;51545;51.568;6.998;2023-02-15T17:24:44;10.42;64.52
64997;SHT31;51545;51.568;6.998;2023-02-15T17:27:20;10.35;64.78
64997;SHT31;51545;51.568;6.998;2023-02-15T17:29:58;10.42;64.42
64997;SHT31;51545;51.568;6.998;2023-02-15T17:32:38;10.42;64.39
64997;SHT31;51545;51.568;6.998;2023-02-15T17:35:20;10.46;64.66
64997;SHT31;51545;51.568;6.998;2023-02-15T17:38:06;10.42;64.75
64997;SHT31;51545;51.568;6.998;2023-02-15T17:40:42;10.42;64.69
64997;SHT31;51545;51.568;6.998;2023-02-15T17:43:08;10.32;65.31
64997;SHT31;51545;51.568;6.998;2023-02-15T17:45:34;10.22;65.73
64997;SHT31;51545;51.568;6.998;2023-02-15T17:48:02;10.26;66.02
64997;SHT31;51545;51.568;6.998;2023-02-15T17:50:30;10.20;66.09
64997;SHT31;51545;51.568;6.998;2023-02-15T17:52:56;10.15;66.46
64997;SHT31;51545;51.568;6.998;2023-02-15T17:55:23;9.97;67.01
64997;SHT31;51545;51.568;6.998;2023-02-15T18:00:42;9.86;68.11
64997;SHT31;51545;51.568;6.998;2023-02-15T18:03:39;9.90;68.22
64997;SHT31;51545;51.568;6.998;2023-02-15T18:06:34;9.82;68.39
64997;SHT31;51545;51.568;6.998;2023-02-15T18:09:20;9.76;68.74
64997;SHT31;51545;51.568;6.998;2023-02-15T18:14:48;9.79;68.88
64997;SHT31;51545;51.568;6.998;2023-02-15T18:17:15;9.84;68.95
64997;SHT31;51545;51.568;6.998;2023-02-15T18:19:41;9.90;68.76
64997;SHT31;51545;51.568;6.998;2023-02-15T18:22:13;9.91;68.80
64997;SHT31;51545;51.568;6.998;2023-02-15T18:24:41;9.94;68.80
64997;SHT31;51545;51.568;6.998;2023-02-15T18:27:09;9.90;69.08
64997;SHT31;51545;51.568;6.998;2023-02-15T18:29:36;9.87;69.18
64997;SHT31;51545;51.568;6.998;2023-02-15T18:32:02;9.79;69.46
64997;SHT31;51545;51.568;6.998;2023-02-15T18:34:32;9.77;69.71
64997;SHT31;51545;51.568;6.998;2023-02-15T18:37:03;9.71;70.01
64997;SHT31;51545;51.568;6.998;2023-02-15T18:39:41;9.63;70.10
64997;SHT31;51545;51.568;6.998;2023-02-15T18:42:21;9.55;70.57
64997;SHT31;51545;51.568;6.998;2023-02-15T18:44:49;9.52;70.76
64997;SHT31;51545;51.568;6.998;2023-02-15T18:47:17;9.48;70.89
64997;SHT31;51545;51.568;6.998;2023-02-15T18:49:43;9.52;71.09
64997;SHT31;51545;51.568;6.998;2023-02-15T18:52:15;9.36;71.45
64997;SHT31;51545;51.568;6.998;2023-02-15T18:54:42;9.18;72.32
64997;SHT31;51545;51.568;6.998;2023-02-15T18:57:09;9.25;71.88
64997;SHT31;51545;51.568;6.998;2023-02-15T18:59:38;9.36;71.71
64997;SHT31;51545;51.568;6.998;2023-02-15T19:02:05;9.45;71.43
64997;SHT31;51545;51.568;6.998;2023-02-15T19:04:38;9.48;71.06
64997;SHT31;51545;51.568;6.998;2023-02-15T19:07:04;9.42;71.31
64997;SHT31;51545;51.568;6.998;2023-02-15T19:09:30;9.40;71.42
64997;SHT31;51545;51.568;6.998;2023-02-15T19:11:56;9.40;71.54
64997;SHT31;51545;51.568;6.998;2023-02-15T19:14:24;9.32;71.70
64997;SHT31;51545;51.568;6.998;2023-02-15T19:16:51;9.28;71.99
64997;SHT31;51545;51.568;6.998;2023-02-15T19:19:17;9.38;71.58
64997;SHT31;51545;51.568;6.998;2023-02-15T19:21:43;9.34;71.78
64997;SHT31;51545;51.568;6.998;2023-02-15T19:24:13;9.28;71.92
64997;SHT31;51545;51.568;6.998;2023-02-15T19:26:42;9.22;72.15
64997;SHT31;51545;51.568;6.998;2023-02-15T19:29:11;9.01;72.69
64997;SHT31;51545;51.568;6.998;2023-02-15T19:31:38;8.76;73.24
64997;SHT31;51545;51.568;6.998;2023-02-15T19:34:14;8.57;73.99
64997;SHT31;51545;51.568;6.998;2023-02-15T19:36:46;8.42;74.24
64997;SHT31;51545;51.568;6.998;2023-02-15T19:39:47;8.28;74.94
64997;SHT31;51545;51.568;6.998;2023-02-15T19:42:08;8.09;75.27
64997;SHT31;51545;51.568;6.998;2023-02-15T19:44:38;7.96;75.63